createdAt,value
2022-08-12T00:00:23.110Z,49.29
2022-08-12T00:03:09.020Z,49.89
2022-08-12T00:06:04.892Z,50.15
2022-08-12T00:08:56.735Z,50.13
2022-08-12T00:11:44.142Z,50.13
2022-08-12T00:14:30.434Z,50.35
2022-08-12T00:17:18.788Z,50.87
2022-08-12T00:20:05.014Z,51.45
2022-08-12T00:22:58.867Z,51.70
2022-08-12T00:26:22.542Z,52.08
2022-08-12T00:29:02.275Z,52.04
2022-08-12T00:31:48.511Z,52.12
2022-08-12T00:34:36.134Z,52.31
2022-08-12T00:37:23.325Z,52.54
2022-08-12T00:40:11.789Z,52.44
2022-08-12T00:42:41.816Z,52.19
2022-08-12T00:45:12.882Z,52.37
2022-08-12T00:47:41.870Z,52.93
2022-08-12T00:50:18.404Z,53.32
2022-08-12T00:52:47.488Z,53.62
2022-08-12T00:55:17.096Z,53.91
2022-08-12T00:57:47.973Z,54.20
2022-08-12T01:00:21.528Z,54.31
2022-08-12T01:02:52.646Z,54.76
2022-08-12T01:05:41.160Z,54.78
2022-08-12T01:08:28.034Z,54.73
2022-08-12T01:11:15.154Z,54.75
2022-08-12T01:13:48.591Z,54.90
2022-08-12T01:16:22.497Z,55.03
2022-08-12T01:18:53.433Z,55.25
2022-08-12T01:21:44.935Z,55.70
2022-08-12T01:24:31.308Z,55.24
2022-08-12T01:27:07.487Z,55.47
2022-08-12T01:29:42.711Z,55.86
2022-08-12T01:32:14.356Z,55.83
2022-08-12T01:34:51.550Z,55.78
2022-08-12T01:37:23.416Z,55.41
2022-08-12T01:40:33.262Z,55.18
2022-08-12T01:42:47.255Z,55.10
2022-08-12T01:45:22.899Z,55.05
2022-08-12T01:48:06.877Z,55.39
2022-08-12T01:50:43.318Z,55.11
2022-08-12T01:53:16.082Z,55.00
2022-08-12T01:55:47.557Z,55.06
2022-08-12T01:58:26.890Z,55.03
2022-08-12T02:00:59.898Z,55.50
2022-08-12T02:04:03.098Z,56.00
2022-08-12T02:06:57.454Z,56.07
2022-08-12T02:09:54.910Z,56.79
2022-08-12T02:12:38.990Z,57.00
2022-08-12T02:15:22.595Z,57.51
2022-08-12T02:18:07.295Z,57.44
2022-08-12T02:20:51.559Z,57.37
2022-08-12T02:23:27.127Z,57.91
2022-08-12T02:26:02.417Z,57.82
2022-08-12T02:28:31.746Z,57.86
2022-08-12T02:31:05.513Z,58.04
2022-08-12T02:33:34.433Z,58.23
2022-08-12T02:36:04.071Z,57.90
2022-08-12T02:38:32.885Z,57.96
2022-08-12T02:41:04.718Z,57.96
2022-08-12T02:43:37.942Z,57.94
2022-08-12T02:46:14.047Z,57.93
2022-08-12T02:48:48.084Z,57.96
2022-08-12T02:51:20.432Z,57.74
2022-08-12T02:54:02.879Z,57.69
2022-08-12T02:56:37.722Z,57.46
2022-08-12T02:59:12.369Z,57.26
2022-08-12T03:01:48.534Z,57.02
2022-08-12T03:04:27.288Z,56.94
2022-08-12T03:07:05.704Z,56.99
2022-08-12T03:10:03.435Z,57.02
2022-08-12T03:12:41.201Z,57.01
2022-08-12T03:15:22.433Z,56.99
2022-08-12T03:18:24.911Z,56.97
2022-08-12T03:20:46.396Z,57.01
2022-08-12T03:23:17.492Z,57.51
2022-08-12T03:25:59.018Z,57.78
2022-08-12T03:28:47.011Z,58.07
2022-08-12T03:31:15.514Z,58.23
2022-08-12T03:34:00.440Z,58.15
2022-08-12T03:36:33.549Z,58.11
2022-08-12T03:39:35.850Z,58.16
2022-08-12T03:42:17.215Z,57.54
2022-08-12T03:45:16.345Z,57.05
2022-08-12T03:48:11.255Z,57.00
2022-08-12T03:51:06.151Z,57.12
2022-08-12T03:53:52.660Z,57.62
2022-08-12T03:56:38.998Z,57.34
2022-08-12T03:59:26.410Z,57.24
2022-08-12T04:01:58.443Z,57.24
2022-08-12T04:04:28.654Z,57.32
2022-08-12T04:07:01.495Z,57.51
2022-08-12T04:09:31.020Z,57.38
2022-08-12T04:12:16.712Z,57.46
2022-08-12T04:14:45.513Z,57.37
2022-08-12T04:17:14.486Z,57.44
2022-08-12T04:19:43.711Z,57.36
2022-08-12T04:22:13.508Z,57.65
2022-08-12T04:24:42.937Z,57.90
2022-08-12T04:27:16.084Z,57.84
2022-08-12T04:30:29.075Z,57.81
2022-08-12T04:32:33.887Z,58.02
2022-08-12T04:35:03.889Z,58.20
2022-08-12T04:37:58.304Z,58.22
2022-08-12T04:40:27.891Z,58.19
2022-08-12T04:42:57.397Z,58.35
2022-08-12T04:45:26.057Z,58.87
2022-08-12T04:47:54.571Z,59.14
2022-08-12T04:50:33.825Z,59.56
2022-08-12T04:53:10.290Z,59.71
2022-08-12T04:55:39.630Z,60.18
2022-08-12T04:58:09.042Z,60.33
2022-08-12T05:00:38.972Z,60.53
2022-08-12T05:03:08.461Z,59.89
2022-08-12T05:05:38.646Z,60.03
2022-08-12T05:08:12.875Z,60.37
2022-08-12T05:10:41.501Z,60.44
2022-08-12T05:13:14.556Z,60.34
2022-08-12T05:16:04.589Z,60.19
2022-08-12T05:18:32.142Z,60.18
2022-08-12T05:21:00.603Z,60.17
2022-08-12T05:23:32.336Z,60.46
2022-08-12T05:26:01.540Z,60.18
2022-08-12T05:28:30.763Z,59.76
2022-08-12T05:31:01.746Z,59.53
2022-08-12T05:33:37.739Z,59.03
2022-08-12T05:36:09.917Z,59.22
2022-08-12T05:38:58.059Z,59.58
2022-08-12T05:41:28.606Z,59.96
2022-08-12T05:43:59.420Z,60.10
2022-08-12T05:46:29.590Z,60.09
2022-08-12T05:49:00.850Z,59.90
2022-08-12T05:51:40.391Z,59.50
2022-08-12T05:54:12.449Z,58.90
2022-08-12T05:56:42.009Z,58.66
2022-08-12T05:59:14.027Z,58.48
2022-08-12T06:02:12.184Z,58.24
2022-08-12T06:04:33.320Z,58.07
2022-08-12T06:07:02.758Z,57.96
2022-08-12T06:09:52.641Z,57.88
2022-08-12T06:12:23.313Z,57.75
2022-08-12T06:14:51.713Z,57.76
2022-08-12T06:17:20.321Z,57.83
2022-08-12T06:20:26.299Z,58.09
2022-08-12T06:22:37.391Z,58.26
2022-08-12T06:25:09.137Z,58.31
2022-08-12T06:28:06.273Z,57.99
2022-08-12T06:30:39.511Z,57.84
2022-08-12T06:33:22.465Z,57.91
2022-08-12T06:35:57.683Z,57.78
2022-08-12T06:38:28.481Z,57.81
2022-08-12T06:41:27.018Z,58.07
2022-08-12T06:44:06.865Z,58.27
2022-08-12T06:46:38.918Z,58.39
2022-08-12T06:49:08.680Z,58.43
2022-08-12T06:51:37.127Z,58.42
2022-08-12T06:54:05.775Z,58.56
2022-08-12T06:59:25.161Z,58.84
2022-08-12T07:01:55.080Z,59.03
2022-08-12T07:04:36.251Z,59.55
2022-08-12T07:07:07.097Z,59.61
2022-08-12T07:10:00.036Z,59.39
2022-08-12T07:12:27.972Z,58.97
2022-08-12T07:14:57.827Z,58.99
2022-08-12T07:17:26.458Z,58.86
2022-08-12T07:19:57.981Z,58.74
2022-08-12T07:22:29.288Z,58.55
2022-08-12T07:25:11.605Z,58.88
2022-08-12T07:27:42.700Z,58.75
2022-08-12T07:30:12.519Z,59.03
2022-08-12T07:32:41.391Z,58.90
2022-08-12T07:35:10.895Z,58.69
2022-08-12T07:37:42.410Z,58.52
2022-08-12T07:40:13.161Z,58.50
2022-08-12T07:42:44.330Z,58.42
2022-08-12T07:45:13.877Z,57.99
2022-08-12T07:47:43.519Z,57.65
2022-08-12T07:50:13.473Z,57.18
2022-08-12T07:52:44.029Z,57.03
2022-08-12T07:55:13.478Z,56.30
2022-08-12T07:57:59.284Z,56.02
2022-08-12T08:00:29.459Z,56.09
2022-08-12T08:02:58.701Z,56.32
2022-08-12T08:05:30.978Z,56.30
2022-08-12T08:08:02.526Z,56.01
2022-08-12T08:10:31.877Z,55.90
2022-08-12T08:13:05.203Z,55.96
2022-08-12T08:16:01.086Z,55.30
2022-08-12T08:18:26.730Z,55.11
2022-08-12T08:20:57.417Z,55.18
2022-08-12T08:23:56.032Z,55.08
2022-08-12T08:26:27.125Z,54.83
2022-08-12T08:28:57.207Z,54.48
2022-08-12T08:31:25.770Z,53.81
2022-08-12T08:34:05.105Z,53.29
2022-08-12T08:36:44.006Z,52.66
2022-08-12T08:39:16.966Z,52.40
2022-08-12T08:42:17.445Z,51.93
2022-08-12T08:44:54.048Z,51.96
2022-08-12T08:47:27.287Z,51.61
2022-08-12T08:50:01.248Z,51.56
2022-08-12T08:52:40.099Z,51.26
2022-08-12T08:55:11.145Z,50.92
2022-08-12T08:57:43.611Z,50.70
2022-08-12T09:00:18.620Z,50.41
2022-08-12T09:02:49.610Z,50.21
2022-08-12T09:05:43.142Z,49.83
2022-08-12T09:08:26.729Z,49.66
2022-08-12T09:11:00.152Z,49.47
2022-08-12T09:14:10.531Z,49.21
2022-08-12T09:16:24.377Z,49.02
2022-08-12T09:18:54.016Z,48.82
2022-08-12T09:21:23.394Z,48.86
2022-08-12T09:24:06.135Z,48.75
2022-08-12T09:26:46.101Z,48.25
2022-08-12T09:29:15.784Z,47.91
2022-08-12T09:32:07.378Z,47.44
2022-08-12T09:34:36.310Z,47.29
2022-08-12T09:37:19.899Z,46.81
2022-08-12T09:40:05.289Z,46.15
2022-08-12T09:43:16.039Z,46.05
2022-08-12T09:46:11.676Z,45.50
2022-08-12T09:48:39.254Z,45.30
2022-08-12T09:51:21.732Z,44.87
2022-08-12T09:54:05.904Z,44.91
2022-08-12T09:57:03.149Z,44.84
2022-08-12T10:00:17.196Z,44.45
2022-08-12T10:02:45.732Z,43.89
2022-08-12T10:05:13.284Z,43.68
2022-08-12T10:07:42.724Z,43.44
2022-08-12T10:10:24.189Z,43.62
2022-08-12T10:13:33.804Z,43.82
2022-08-12T10:16:05.145Z,43.77
2022-08-12T10:18:51.205Z,43.01
2022-08-12T10:21:24.006Z,43.10
2022-08-12T10:24:06.309Z,42.75
2022-08-12T10:26:53.474Z,42.57
2022-08-12T10:30:37.290Z,42.36
2022-08-12T10:32:43.801Z,42.45
2022-08-12T10:35:16.483Z,42.39
2022-08-12T10:38:37.835Z,42.13
2022-08-12T10:40:55.863Z,42.18
2022-08-12T10:43:54.471Z,41.84
2022-08-12T10:46:31.414Z,41.25
2022-08-12T10:49:06.687Z,40.81
2022-08-12T10:52:31.144Z,40.73
2022-08-12T10:54:46.314Z,40.34
2022-08-12T10:58:15.745Z,40.01
2022-08-12T11:00:33.716Z,39.74
2022-08-12T11:04:19.136Z,39.64
2022-08-12T11:07:08.463Z,39.15
2022-08-12T11:08:42.898Z,38.70
2022-08-12T11:11:17.931Z,38.00
2022-08-12T11:14:13.111Z,37.73
2022-08-12T11:17:34.758Z,37.26
2022-08-12T11:19:46.490Z,37.24
2022-08-12T11:22:14.996Z,37.14
2022-08-12T11:24:51.586Z,36.96
2022-08-12T11:27:23.621Z,37.31
2022-08-12T11:30:05.566Z,36.90
2022-08-12T11:32:39.072Z,36.73
2022-08-12T11:35:11.523Z,36.75
2022-08-12T11:37:58.140Z,36.67
2022-08-12T11:40:28.689Z,36.67
2022-08-12T11:43:17.181Z,36.32
2022-08-12T11:45:53.398Z,35.89
2022-08-12T11:48:26.978Z,35.90
2022-08-12T11:50:56.442Z,35.25
2022-08-12T11:53:59.144Z,35.36
2022-08-12T11:56:13.225Z,35.36
2022-08-12T12:02:02.459Z,35.55
2022-08-12T12:04:29.040Z,35.44
2022-08-12T12:07:07.377Z,35.45
2022-08-12T12:09:51.955Z,35.83
2022-08-12T12:12:25.224Z,35.95
2022-08-12T12:14:55.877Z,35.83
2022-08-12T12:17:25.189Z,35.83
2022-08-12T12:19:55.070Z,35.87
2022-08-12T12:22:27.230Z,35.85
2022-08-12T12:25:13.241Z,35.92
2022-08-12T12:28:06.131Z,36.09
2022-08-12T12:30:37.281Z,35.74
2022-08-12T12:33:06.441Z,35.47
2022-08-12T12:36:07.057Z,35.36
2022-08-12T12:38:25.113Z,34.83
2022-08-12T12:40:54.137Z,34.75
2022-08-12T12:43:29.081Z,34.78
2022-08-12T12:46:13.044Z,34.43
2022-08-12T12:48:44.614Z,34.28
2022-08-12T12:51:22.275Z,34.33
2022-08-12T12:54:09.891Z,34.34
2022-08-12T12:56:42.941Z,34.59
2022-08-12T12:59:56.572Z,34.85
2022-08-12T13:02:06.190Z,35.11
2022-08-12T13:04:38.121Z,35.21
2022-08-12T13:07:07.943Z,35.38
2022-08-12T13:09:36.947Z,35.32
2022-08-12T13:12:10.594Z,35.00
2022-08-12T13:14:39.807Z,34.82
2022-08-12T13:17:14.481Z,34.50
2022-08-12T13:19:46.588Z,34.33
2022-08-12T13:22:18.531Z,34.18
2022-08-12T13:24:51.928Z,33.94
2022-08-12T13:27:23.057Z,34.06
2022-08-12T13:30:02.021Z,33.92
2022-08-12T13:32:35.288Z,33.80
2022-08-12T13:35:19.766Z,33.37
2022-08-12T13:37:55.358Z,33.23
2022-08-12T13:40:26.035Z,32.95
2022-08-12T13:42:58.070Z,32.25
2022-08-12T13:45:29.074Z,31.90
2022-08-12T13:48:02.148Z,31.69
2022-08-12T13:50:33.207Z,31.65
2022-08-12T13:53:06.355Z,31.65
2022-08-12T13:56:01.419Z,31.29
2022-08-12T13:58:34.750Z,31.43
2022-08-12T14:01:06.096Z,31.27
2022-08-12T14:03:51.533Z,30.96
2022-08-12T14:06:22.001Z,31.07
2022-08-12T14:08:55.741Z,31.33
2022-08-12T14:11:25.308Z,30.79
2022-08-12T14:14:03.469Z,30.28
2022-08-12T14:16:49.057Z,30.30
2022-08-12T14:19:24.847Z,30.42
2022-08-12T14:22:00.709Z,30.09
2022-08-12T14:24:40.639Z,30.07
2022-08-12T14:27:11.256Z,30.25
2022-08-12T14:30:04.824Z,30.33
2022-08-12T14:32:34.582Z,30.25
2022-08-12T14:35:09.632Z,30.54
2022-08-12T14:37:56.642Z,30.54
2022-08-12T14:40:28.312Z,31.00
2022-08-12T14:42:57.950Z,31.12
2022-08-12T14:45:44.685Z,31.21
2022-08-12T14:48:18.467Z,31.21
2022-08-12T14:51:09.520Z,31.28
2022-08-12T14:59:56.517Z,31.38
2022-08-12T15:02:21.543Z,31.25
2022-08-12T15:04:58.669Z,31.30
2022-08-12T15:07:33.868Z,31.12
2022-08-12T15:10:24.958Z,31.10
2022-08-12T15:13:07.420Z,30.88
2022-08-12T15:15:44.167Z,30.82
2022-08-12T15:18:20.890Z,30.60
2022-08-12T15:20:51.258Z,30.66
2022-08-12T15:23:22.880Z,30.47
2022-08-12T15:26:02.370Z,30.24
2022-08-12T15:28:34.782Z,30.46
2022-08-12T15:31:09.596Z,30.41
2022-08-12T15:33:50.401Z,30.62
2022-08-12T15:36:50.260Z,30.57
2022-08-12T15:39:17.067Z,30.69
2022-08-12T15:41:49.732Z,30.68
2022-08-12T15:44:38.679Z,30.56
2022-08-12T15:47:09.005Z,30.39
2022-08-12T15:49:54.760Z,30.57
2022-08-12T15:52:28.923Z,30.42
2022-08-12T15:55:06.347Z,30.39
2022-08-12T15:57:41.828Z,30.25
2022-08-12T16:00:22.461Z,30.17
2022-08-12T16:03:05.361Z,30.37
2022-08-12T16:06:16.869Z,30.29
2022-08-12T16:08:27.676Z,30.25
2022-08-12T16:10:58.002Z,30.11
2022-08-12T16:13:34.773Z,30.25
2022-08-12T16:16:04.334Z,30.30
2022-08-12T16:18:52.764Z,30.40
2022-08-12T16:21:52.095Z,30.70
2022-08-12T16:24:14.402Z,30.85
2022-08-12T16:26:45.219Z,31.03
2022-08-12T16:29:52.066Z,31.26
2022-08-12T16:32:24.236Z,31.31
2022-08-12T16:34:55.059Z,31.51
2022-08-12T16:38:04.754Z,31.51
2022-08-12T16:40:14.750Z,31.46
2022-08-12T16:42:53.736Z,31.55
2022-08-12T16:45:32.197Z,31.54
2022-08-12T16:48:34.879Z,31.58
2022-08-12T16:51:09.544Z,31.66
2022-08-12T16:53:43.682Z,31.79
2022-08-12T16:56:15.273Z,31.86
2022-08-12T16:58:47.135Z,31.78
2022-08-12T17:01:16.635Z,32.02
2022-08-12T17:04:08.611Z,31.92
2022-08-12T17:06:41.710Z,32.17
2022-08-12T17:09:18.053Z,32.26
2022-08-12T17:11:49.463Z,32.50
2022-08-12T17:14:23.500Z,32.43
2022-08-12T17:16:55.609Z,32.80
2022-08-12T17:20:12.140Z,33.03
2022-08-12T17:22:16.423Z,33.20
2022-08-12T17:24:54.720Z,33.32
2022-08-12T17:27:26.690Z,33.59
2022-08-12T17:30:04.437Z,33.30
2022-08-12T17:32:37.085Z,33.19
2022-08-12T17:35:29.815Z,33.10
2022-08-12T17:38:11.984Z,33.53
2022-08-12T17:40:43.041Z,33.48
2022-08-12T17:43:57.702Z,33.33
2022-08-12T17:46:03.561Z,33.66
2022-08-12T17:48:34.467Z,33.68
2022-08-12T17:51:15.508Z,33.88
2022-08-12T17:54:11.063Z,34.18
2022-08-12T17:56:37.283Z,33.95
2022-08-12T17:59:12.095Z,34.14
2022-08-12T18:01:46.146Z,34.52
2022-08-12T18:04:22.390Z,34.21
2022-08-12T18:06:52.637Z,34.44
2022-08-12T18:09:24.556Z,34.43
2022-08-12T18:12:24.858Z,34.73
2022-08-12T18:14:58.497Z,34.61
2022-08-12T18:17:29.505Z,34.94
2022-08-12T18:20:05.936Z,34.91
2022-08-12T18:22:38.642Z,35.00
2022-08-12T18:26:12.470Z,34.96
2022-08-12T18:28:15.644Z,35.06
2022-08-12T18:30:52.339Z,35.31
2022-08-12T18:33:25.331Z,35.46
2022-08-12T18:35:57.153Z,35.74
2022-08-12T18:38:26.912Z,35.54
2022-08-12T18:41:21.536Z,35.70
2022-08-12T18:44:00.011Z,35.87
2022-08-12T18:46:47.213Z,36.25
2022-08-12T18:49:24.834Z,36.23
2022-08-12T18:52:03.907Z,36.24
2022-08-12T18:54:36.232Z,36.16
2022-08-12T18:57:16.701Z,36.51
2022-08-12T19:00:02.057Z,36.48
2022-08-12T19:02:39.899Z,36.91
2022-08-12T19:05:14.327Z,37.07
2022-08-12T19:07:49.817Z,37.22
2022-08-12T19:10:29.066Z,37.25
2022-08-12T19:13:24.224Z,37.40
2022-08-12T19:15:58.166Z,37.74
2022-08-12T19:18:31.349Z,37.98
2022-08-12T19:21:11.742Z,38.07
2022-08-12T19:24:04.757Z,38.15
2022-08-12T19:26:34.512Z,38.31
2022-08-12T19:29:05.001Z,38.37
2022-08-12T19:31:57.531Z,38.41
2022-08-12T19:37:26.639Z,38.74
2022-08-12T19:40:08.780Z,38.96
2022-08-12T19:43:00.703Z,39.25
2022-08-12T19:45:42.406Z,39.55
2022-08-12T19:48:18.885Z,40.01
2022-08-12T19:50:50.174Z,40.67
2022-08-12T19:53:23.492Z,41.37
2022-08-12T19:55:53.708Z,41.77
2022-08-12T19:58:24.487Z,41.92
2022-08-12T20:00:54.778Z,41.84
2022-08-12T20:03:38.147Z,41.91
2022-08-12T20:06:11.121Z,41.55
2022-08-12T20:08:48.793Z,41.65
2022-08-12T20:12:13.335Z,41.73
2022-08-12T20:14:07.857Z,41.78
2022-08-12T20:16:57.852Z,41.92
2022-08-12T20:19:52.895Z,41.99
2022-08-12T20:22:23.355Z,42.06
2022-08-12T20:24:56.658Z,42.29
2022-08-12T20:27:29.256Z,42.74
2022-08-12T20:30:15.407Z,43.06
2022-08-12T20:32:54.015Z,43.57
2022-08-12T20:35:24.731Z,43.57
2022-08-12T20:38:06.430Z,43.77
2022-08-12T20:40:49.979Z,43.88
2022-08-12T20:43:23.918Z,44.15
2022-08-12T20:45:57.210Z,44.28
2022-08-12T20:48:29.346Z,44.33
2022-08-12T20:51:04.385Z,44.27
2022-08-12T20:53:54.213Z,44.23
2022-08-12T20:56:31.122Z,44.14
2022-08-12T20:59:02.553Z,44.55
2022-08-12T21:01:45.973Z,45.32
2022-08-12T21:04:36.212Z,45.39
2022-08-12T21:07:08.936Z,45.89
2022-08-12T21:09:42.231Z,46.76
2022-08-12T21:12:31.313Z,47.05
2022-08-12T21:15:23.327Z,47.44
2022-08-12T21:18:10.735Z,47.07
2022-08-12T21:20:52.548Z,46.62
2022-08-12T21:23:22.685Z,46.60
2022-08-12T21:25:52.568Z,46.45
2022-08-12T21:28:27.424Z,46.84
2022-08-12T21:32:34.658Z,46.97
2022-08-12T21:34:07.620Z,47.10
2022-08-12T21:36:43.196Z,47.04
2022-08-12T21:39:21.232Z,47.72
2022-08-12T21:41:52.736Z,48.28
2022-08-12T21:45:44.027Z,48.45
2022-08-12T21:47:21.023Z,48.55
2022-08-12T21:50:02.295Z,48.51
2022-08-12T21:52:35.504Z,48.84
2022-08-12T21:55:20.182Z,48.78
2022-08-12T21:57:54.540Z,48.92
2022-08-12T22:00:34.806Z,48.96
2022-08-12T22:04:02.204Z,49.67
2022-08-12T22:06:31.807Z,49.72
2022-08-12T22:09:15.975Z,49.63
2022-08-12T22:11:56.502Z,49.69
2022-08-12T22:14:29.695Z,49.57
2022-08-12T22:17:01.444Z,49.54
2022-08-12T22:19:35.284Z,49.46
2022-08-12T22:22:05.243Z,49.77
2022-08-12T22:24:34.358Z,50.35
2022-08-12T22:27:08.049Z,50.57
2022-08-12T22:30:15.990Z,51.04
2022-08-12T22:32:50.120Z,51.36
2022-08-12T22:35:55.679Z,51.39
2022-08-12T22:38:26.576Z,51.69
2022-08-12T22:40:58.504Z,51.92
2022-08-12T22:44:00.845Z,52.14
2022-08-12T22:46:53.126Z,52.33
2022-08-12T22:49:37.143Z,52.32
2022-08-12T22:52:18.591Z,52.30
2022-08-12T22:55:02.688Z,52.07
2022-08-12T22:57:53.733Z,51.70
2022-08-12T23:00:24.183Z,51.46
2022-08-12T23:03:02.684Z,51.47
2022-08-12T23:05:56.719Z,52.24
2022-08-12T23:08:29.874Z,52.63
2022-08-12T23:11:00.270Z,52.95
2022-08-12T23:13:55.539Z,52.61
2022-08-12T23:16:30.894Z,52.33
2022-08-12T23:19:09.894Z,52.57
2022-08-12T23:22:06.305Z,52.56
2022-08-12T23:24:54.135Z,52.53
2022-08-12T23:27:50.954Z,52.72
2022-08-12T23:30:31.028Z,53.37
2022-08-12T23:33:01.391Z,54.02
2022-08-12T23:35:53.448Z,54.84
2022-08-12T23:38:31.782Z,54.98
2022-08-12T23:41:02.024Z,55.16
2022-08-12T23:43:39.206Z,55.23
2022-08-12T23:46:10.007Z,55.03
2022-08-12T23:48:39.876Z,54.48
2022-08-12T23:51:23.080Z,54.28
2022-08-12T23:54:00.311Z,54.10
2022-08-12T23:56:33.541Z,54.03
2022-08-12T23:59:03.092Z,54.06
